Time;durP1;ratioP1;P1;durP2;ratioP2;P2;SDS_P1;SDS_P2;PMS_P1;PMS_P2;Temp;Humidity;BMP_temperature;BMP_pressure;BME280_temperature;BME280_humidity;BME280_pressure;Samples;Min_cycle;Max_cycle;Signal;HPM_P1;HPM_P2
2022/09/22 00:01:27;;;;;;;9.35;2.53;;;18.10;96.70;;;;;;5033699;28;20018;-62
2022/09/22 00:04:02;;;;;;;16.30;2.38;;;18.10;96.50;;;;;;5027790;28;20170;-62
2022/09/22 00:06:30;;;;;;;;;;;18.20;96.80;;;;;;5043465;28;20109;-62
2022/09/22 00:09:00;;;;;;;11.52;2.22;;;18.30;95.90;;;;;;5039460;28;19916;-61
2022/09/22 00:11:39;;;;;;;10.23;2.25;;;18.30;96.20;;;;;;5029510;28;20021;-62
2022/09/22 00:14:12;;;;;;;10.82;2.22;;;18.30;96.00;;;;;;5021666;28;20040;-62
2022/09/22 00:16:45;;;;;;;10.45;1.85;;;18.30;94.60;;;;;;5035397;28;20390;-61
2022/09/22 00:19:31;;;;;;;8.57;1.48;;;18.20;94.40;;;;;;5034219;28;20089;-62
2022/09/22 00:21:58;;;;;;;6.63;1.33;;;18.30;94.10;;;;;;5034692;28;20028;-63
2022/09/22 00:24:27;;;;;;;7.47;1.40;;;18.40;92.30;;;;;;5035606;28;20042;-63
2022/09/22 00:26:56;;;;;;;12.68;1.55;;;18.50;90.60;;;;;;5028873;28;20026;-63
2022/09/22 00:29:26;;;;;;;5.22;1.25;;;18.70;90.80;;;;;;5033722;28;20091;-63
2022/09/22 00:31:54;;;;;;;5.57;1.60;;;18.90;90.80;;;;;;5035377;28;20022;-63
2022/09/22 00:34:23;;;;;;;6.75;1.60;;;19.00;90.80;;;;;;5028117;28;20029;-63
2022/09/22 00:36:51;;;;;;;7.57;1.23;;;19.10;90.20;;;;;;5039660;28;20049;-62
2022/09/22 00:39:19;;;;;;;7.40;1.55;;;19.10;89.90;;;;;;5027198;28;20108;-63
2022/09/22 00:41:49;;;;;;;10.75;2.30;;;19.10;89.00;;;;;;5028091;28;20029;-63
2022/09/22 00:44:26;;;;;;;9.07;1.83;;;19.20;90.00;;;;;;5045006;28;20033;-63
2022/09/22 00:47:20;;;;;;;7.30;1.50;;;19.20;88.70;;;;;;5037070;28;20025;-63
2022/09/22 00:49:57;;;;;;;9.38;1.95;;;19.20;89.70;;;;;;5029613;28;20437;-63
2022/09/22 00:52:31;;;;;;;4.72;1.65;;;19.00;89.70;;;;;;5031297;28;20088;-64
2022/09/22 00:55:03;;;;;;;9.85;2.05;;;18.80;91.10;;;;;;5032085;28;20028;-63
2022/09/22 00:57:35;;;;;;;10.45;1.98;;;18.60;92.20;;;;;;5030545;28;20757;-65
2022/09/22 01:00:07;;;;;;;11.35;1.33;;;18.40;92.50;;;;;;5033340;28;20022;-71
2022/09/22 01:02:36;;;;;;;16.60;2.40;;;18.40;92.70;;;;;;5032228;28;20026;-71
2022/09/22 01:05:04;;;;;;;5.93;1.65;;;18.40;92.40;;;;;;5032379;28;20036;-71
2022/09/22 01:07:32;;;;;;;7.95;1.52;;;18.60;92.40;;;;;;5032790;28;20060;-71
2022/09/22 01:09:59;;;;;;;9.52;2.20;;;18.80;92.10;;;;;;5031415;28;20025;-71
2022/09/22 01:12:29;;;;;;;8.25;1.90;;;19.00;92.10;;;;;;5045910;28;20120;-71
2022/09/22 01:15:08;;;;;;;6.85;1.30;;;19.30;90.90;;;;;;5033041;28;20033;-72
2022/09/22 01:17:43;;;;;;;6.50;1.38;;;19.50;90.50;;;;;;5031502;28;20025;-72
2022/09/22 01:20:35;;;;;;;15.00;2.17;;;19.60;88.90;;;;;;5032074;28;20025;-72
2022/09/22 01:23:38;;;;;;;11.60;1.52;;;19.70;89.20;;;;;;5036346;28;20116;-71
2022/09/22 01:26:56;;;;;;;8.48;1.58;;;19.60;85.20;;;;;;5034070;28;20500;-68
2022/09/22 01:29:45;;;;;;;3.92;1.55;;;19.70;86.00;;;;;;4999483;28;20413;-69
2022/09/22 01:32:22;;;;;;;3.88;1.40;;;19.80;83.50;;;;;;5037628;28;20037;-70
2022/09/22 01:35:12;;;;;;;6.95;1.38;;;19.80;82.80;;;;;;5040010;28;20076;-71
2022/09/22 01:37:54;;;;;;;7.20;1.52;;;19.80;81.40;;;;;;5025470;28;20399;-71
2022/09/22 01:40:46;;;;;;;10.20;1.63;;;19.90;86.00;;;;;;5047395;28;20095;-71
2022/09/22 01:43:42;;;;;;;10.48;1.88;;;19.80;83.70;;;;;;5050921;28;20444;-71
2022/09/22 01:46:16;;;;;;;5.55;1.70;;;19.90;82.30;;;;;;5035141;28;20033;-70
2022/09/22 01:48:48;;;;;;;8.90;1.73;;;19.90;82.80;;;;;;5042510;28;20742;-70
2022/09/22 01:51:29;;;;;;;5.05;1.58;;;19.90;82.70;;;;;;5037725;28;20286;-70
2022/09/22 01:54:09;;;;;;;7.35;1.48;;;19.80;82.10;;;;;;5044071;28;20025;-69
2022/09/22 01:56:38;;;;;;;4.72;1.40;;;19.80;84.90;;;;;;5032775;28;20108;-66
2022/09/22 01:59:08;;;;;;;6.28;1.45;;;20.00;81.70;;;;;;5044450;28;20096;-65
2022/09/22 02:01:55;;;;;;;5.82;1.30;;;20.00;81.60;;;;;;5042059;28;20036;-65
2022/09/22 02:04:47;;;;;;;6.45;2.47;;;20.10;82.70;;;;;;5048451;28;20110;-68
2022/09/22 02:07:32;;;;;;;7.40;1.60;;;20.20;82.90;;;;;;5050488;28;20049;-67
2022/09/22 02:10:04;;;;;;;4.85;1.50;;;20.30;82.30;;;;;;5023557;28;20189;-67
2022/09/22 02:12:31;;;;;;;8.40;2.50;;;20.30;82.80;;;;;;5035401;28;20575;-69
2022/09/22 02:14:59;;;;;;;6.57;2.25;;;20.10;81.60;;;;;;5025612;28;20060;-70
2022/09/22 02:17:26;;;;;;;7.82;1.40;;;20.20;83.90;;;;;;5031213;28;20026;-70
2022/09/22 02:19:53;;;;;;;5.07;1.15;;;20.40;83.90;;;;;;5033364;28;20028;-68
2022/09/22 02:22:21;;;;;;;4.97;1.27;;;20.50;80.70;;;;;;5029083;28;20018;-65
2022/09/22 02:24:48;;;;;;;6.32;1.73;;;20.80;82.30;;;;;;5029654;28;20472;-72
2022/09/22 02:27:25;;;;;;;6.95;1.60;;;20.90;80.80;;;;;;5030792;28;20047;-73
2022/09/22 02:30:02;;;;;;;4.32;1.27;;;21.20;80.20;;;;;;5031287;28;20025;-68
2022/09/22 02:32:30;;;;;;;5.13;1.60;;;21.30;78.90;;;;;;5031565;28;20025;-69
2022/09/22 02:34:59;;;;;;;4.57;1.15;;;21.40;79.50;;;;;;5028916;28;20490;-69
2022/09/22 02:37:26;;;;;;;6.90;1.27;;;21.50;78.30;;;;;;5029889;28;20032;-74
2022/09/22 02:40:07;;;;;;;4.25;1.20;;;21.60;77.70;;;;;;5043698;28;20029;-72
2022/09/22 02:43:23;;;;;;;6.00;1.35;;;21.30;76.10;;;;;;5046557;28;20045;-72
2022/09/22 02:46:38;;;;;;;7.95;1.52;;;21.20;77.50;;;;;;4966199;28;21501;-72
2022/09/22 02:49:15;;;;;;;6.63;1.60;;;21.20;78.40;;;;;;5023489;28;20033;-72
2022/09/22 02:51:45;;;;;;;7.25;1.38;;;21.10;78.60;;;;;;5030561;28;20036;-70
2022/09/22 02:54:13;;;;;;;8.65;1.35;;;20.90;77.50;;;;;;5030503;28;20026;-72
2022/09/22 02:56:44;;;;;;;6.75;1.63;;;20.60;79.10;;;;;;5040390;28;20024;-72
2022/09/22 02:59:11;;;;;;;5.78;1.08;;;20.50;80.50;;;;;;5029382;28;20490;-73
2022/09/22 03:01:39;;;;;;;5.10;1.20;;;20.50;81.00;;;;;;5028634;28;20025;-72
2022/09/22 03:04:06;;;;;;;3.88;1.17;;;20.50;79.60;;;;;;5027660;28;20402;-76
2022/09/22 03:06:33;;;;;;;6.15;1.83;;;20.60;81.80;;;;;;5030588;28;20040;-70
2022/09/22 03:09:01;;;;;;;6.45;1.85;;;20.70;82.90;;;;;;5037153;28;20032;-76
2022/09/22 03:11:28;;;;;;;7.35;1.40;;;20.80;80.70;;;;;;5037500;28;20033;-75
2022/09/22 03:13:55;;;;;;;4.53;1.00;;;20.80;79.40;;;;;;5035171;28;20037;-74
2022/09/22 03:16:22;;;;;;;6.07;1.60;;;20.70;79.40;;;;;;5030003;28;20032;-77
2022/09/22 03:18:49;;;;;;;2.65;0.85;;;20.80;78.50;;;;;;5028518;28;20474;-77
2022/09/22 03:21:17;;;;;;;5.10;1.40;;;20.90;78.30;;;;;;5026272;28;20045;-74
2022/09/22 03:23:44;;;;;;;3.97;1.42;;;20.90;78.80;;;;;;5025013;28;20042;-75
2022/09/22 03:26:11;;;;;;;5.30;1.10;;;20.90;76.60;;;;;;5026219;28;20393;-73
2022/09/22 03:28:39;;;;;;;5.57;1.17;;;20.90;77.70;;;;;;5026414;28;20508;-73
2022/09/22 03:31:06;;;;;;;3.80;1.10;;;21.00;78.10;;;;;;5028416;28;20036;-73
2022/09/22 03:33:33;;;;;;;5.30;1.27;;;21.20;76.50;;;;;;5026578;28;20029;-72
2022/09/22 03:36:00;;;;;;;5.65;1.65;;;21.00;77.70;;;;;;5030139;28;20045;-73
2022/09/22 03:38:28;;;;;;;12.25;1.52;;;20.80;76.80;;;;;;5031321;28;20037;-73
2022/09/22 03:40:57;;;;;;;5.88;1.33;;;20.60;78.80;;;;;;5032210;28;20018;-72
2022/09/22 03:43:25;;;;;;;3.65;0.98;;;20.60;78.70;;;;;;5030302;28;20038;-72
2022/09/22 03:46:01;;;;;;;5.50;1.45;;;20.40;80.40;;;;;;5029471;28;20045;-73
2022/09/22 03:48:30;;;;;;;2.67;1.00;;;20.30;81.50;;;;;;5021616;28;20037;-75
2022/09/22 03:50:57;;;;;;;4.32;1.30;;;20.10;81.30;;;;;;5029107;28;20378;-70
2022/09/22 03:53:25;;;;;;;4.38;1.40;;;19.90;83.40;;;;;;5028627;28;20022;-75
2022/09/22 03:55:52;;;;;;;3.25;1.10;;;19.50;84.50;;;;;;5029473;28;20466;-73
2022/09/22 03:58:20;;;;;;;5.82;1.17;;;19.50;88.20;;;;;;5018157;28;20048;-69
2022/09/22 04:00:48;;;;;;;6.90;1.55;;;19.30;91.10;;;;;;5028127;28;20132;-70
2022/09/22 04:03:16;;;;;;;9.27;2.33;;;19.10;90.70;;;;;;5028638;28;20033;-66
2022/09/22 04:05:51;;;;;;;4.93;1.48;;;19.10;91.80;;;;;;5040919;28;20056;-66
2022/09/22 04:08:19;;;;;;;5.82;1.85;;;19.00;91.30;;;;;;5027215;28;20030;-62
2022/09/22 04:10:46;;;;;;;3.35;1.02;;;19.00;91.70;;;;;;5030316;28;20087;-62
2022/09/22 04:13:14;;;;;;;6.88;1.58;;;18.90;91.50;;;;;;5048367;28;20087;-63
2022/09/22 04:15:42;;;;;;;10.85;1.88;;;18.80;92.20;;;;;;5046171;28;20112;-63
2022/09/22 04:18:11;;;;;;;4.57;1.33;;;18.80;92.90;;;;;;5045977;28;20104;-62
2022/09/22 04:20:43;;;;;;;4.78;1.33;;;18.60;92.90;;;;;;5043713;28;20436;-62
2022/09/22 04:23:15;;;;;;;5.32;1.30;;;18.50;93.40;;;;;;5034915;28;20037;-63
2022/09/22 04:25:42;;;;;;;6.90;1.45;;;18.50;92.70;;;;;;5040057;28;20425;-61
2022/09/22 04:28:09;;;;;;;3.58;1.10;;;18.60;93.20;;;;;;5035691;28;20036;-64
2022/09/22 04:30:36;;;;;;;6.43;1.48;;;18.60;93.30;;;;;;5051993;28;20017;-64
2022/09/22 04:33:03;;;;;;;7.00;2.88;;;18.70;93.70;;;;;;5036855;28;20033;-67
2022/09/22 04:35:31;;;;;;;5.75;1.90;;;18.70;93.30;;;;;;5033461;28;20053;-63
2022/09/22 04:37:58;;;;;;;4.07;1.40;;;18.60;92.70;;;;;;5033274;28;20777;-64
2022/09/22 04:40:26;;;;;;;7.95;1.70;;;18.50;92.70;;;;;;5032912;28;20029;-63
2022/09/22 04:42:53;;;;;;;8.80;1.95;;;18.40;93.00;;;;;;5032988;28;20113;-66
2022/09/22 04:45:21;;;;;;;5.40;1.55;;;18.40;92.60;;;;;;5032404;28;20029;-65
2022/09/22 04:47:50;;;;;;;7.55;2.13;;;18.40;93.20;;;;;;5032975;28;20063;-64
2022/09/22 04:50:19;;;;;;;8.63;1.70;;;18.40;93.10;;;;;;5033099;28;20017;-65
2022/09/22 04:52:48;;;;;;;9.65;1.80;;;18.50;92.60;;;;;;5031517;28;20120;-65
2022/09/22 04:55:16;;;;;;;7.25;2.35;;;18.50;92.00;;;;;;5032975;28;20026;-65
2022/09/22 04:57:55;;;;;;;5.35;1.60;;;18.50;91.90;;;;;;5032678;28;20128;-65
2022/09/22 05:00:24;;;;;;;4.85;1.25;;;18.70;91.60;;;;;;5032125;28;20025;-65
2022/09/22 05:02:51;;;;;;;5.53;2.00;;;19.00;91.70;;;;;;5031389;28;20034;-63
2022/09/22 05:05:19;;;;;;;4.07;1.77;;;19.10;90.60;;;;;;5032359;28;20025;-66
2022/09/22 05:07:48;;;;;;;5.15;1.40;;;19.30;90.30;;;;;;5032561;28;20117;-63
2022/09/22 05:10:19;;;;;;;5.22;1.42;;;19.40;90.20;;;;;;5031131;28;20025;-63
2022/09/22 05:12:47;;;;;;;6.45;1.38;;;19.50;88.10;;;;;;5032668;28;20490;-63
2022/09/22 05:15:15;;;;;;;3.13;1.20;;;19.50;89.70;;;;;;5031381;28;20047;-62
2022/09/22 05:17:53;;;;;;;6.40;1.40;;;19.50;90.20;;;;;;5032531;28;20026;-63
2022/09/22 05:20:21;;;;;;;7.07;1.90;;;19.50;88.80;;;;;;5031942;28;20036;-62
2022/09/22 05:22:49;;;;;;;5.22;1.52;;;19.50;90.00;;;;;;5031722;28;20029;-64
2022/09/22 05:25:18;;;;;;;6.85;1.80;;;19.40;88.80;;;;;;5032021;28;20032;-64
2022/09/22 05:27:53;;;;;;;3.83;1.50;;;19.30;89.80;;;;;;5031954;28;20366;-64
2022/09/22 05:30:22;;;;;;;5.30;1.45;;;19.40;89.00;;;;;;5031376;28;20049;-64
2022/09/22 05:32:50;;;;;;;7.10;1.70;;;19.40;89.20;;;;;;5032386;28;20026;-64
2022/09/22 05:35:20;;;;;;;3.17;1.10;;;19.30;87.90;;;;;;5026369;28;20057;-65
2022/09/22 05:37:49;;;;;;;7.60;2.50;;;19.20;87.60;;;;;;5029591;28;20386;-65
2022/09/22 05:40:17;;;;;;;9.00;1.80;;;19.20;89.00;;;;;;5029544;28;20021;-64
2022/09/22 05:42:50;;;;;;;6.38;2.55;;;19.30;88.80;;;;;;5029646;28;20036;-64
2022/09/22 05:45:18;;;;;;;8.45;1.88;;;19.30;88.80;;;;;;5029533;28;20544;-64
2022/09/22 05:47:46;;;;;;;9.52;1.92;;;19.20;89.00;;;;;;5029431;28;20056;-65
2022/09/22 05:50:15;;;;;;;7.03;2.97;;;19.20;89.00;;;;;;5029535;28;20052;-64
2022/09/22 05:52:42;;;;;;;8.57;2.05;;;19.00;90.00;;;;;;5028719;28;20029;-64
2022/09/22 05:55:10;;;;;;;10.48;2.50;;;18.90;89.20;;;;;;5028596;28;20040;-64
2022/09/22 05:57:37;;;;;;;6.63;1.63;;;18.70;89.10;;;;;;5028837;28;20030;-64
2022/09/22 06:00:07;;;;;;;12.45;2.33;;;18.70;90.40;;;;;;5028185;28;20030;-64
2022/09/22 06:02:35;;;;;;;6.90;1.40;;;18.60;90.20;;;;;;5030229;28;20379;-64
2022/09/22 06:05:02;;;;;;;15.02;2.33;;;18.60;90.60;;;;;;5027968;28;20104;-63
2022/09/22 06:07:29;;;;;;;5.68;2.05;;;18.70;90.60;;;;;;5031356;28;20088;-63
2022/09/22 06:09:57;;;;;;;3.80;1.60;;;18.70;90.30;;;;;;5031235;28;20037;-64
2022/09/22 06:12:24;;;;;;;7.03;1.90;;;18.70;88.80;;;;;;5030875;28;20025;-63
2022/09/22 06:14:51;;;;;;;9.32;2.40;;;18.70;89.30;;;;;;5031347;28;20080;-63
2022/09/22 06:17:19;;;;;;;11.27;2.67;;;18.60;88.60;;;;;;5030897;28;20026;-63
2022/09/22 06:19:49;;;;;;;7.07;1.55;;;18.60;89.00;;;;;;5030626;28;20650;-63
2022/09/22 06:22:17;;;;;;;6.85;2.20;;;18.60;88.50;;;;;;5031050;28;20044;-64
2022/09/22 06:24:45;;;;;;;7.85;1.50;;;18.60;89.20;;;;;;5030865;28;20033;-63
2022/09/22 06:27:12;;;;;;;7.85;1.90;;;18.50;89.30;;;;;;5029619;28;20064;-64
2022/09/22 06:29:40;;;;;;;4.25;1.80;;;18.40;89.90;;;;;;5030349;28;20029;-64
2022/09/22 06:32:09;;;;;;;6.40;2.70;;;18.30;90.40;;;;;;5031095;28;20021;-64
2022/09/22 06:34:36;;;;;;;11.48;2.63;;;18.20;90.70;;;;;;5030846;28;20097;-67
2022/09/22 06:37:08;;;;;;;7.28;1.92;;;18.10;91.00;;;;;;5031399;28;20037;-64
2022/09/22 06:39:36;;;;;;;10.13;2.05;;;18.10;91.00;;;;;;5031366;28;20021;-64
2022/09/22 06:42:04;;;;;;;8.85;1.70;;;17.90;91.10;;;;;;5030088;28;20056;-63
2022/09/22 06:44:31;;;;;;;6.82;1.75;;;17.90;91.40;;;;;;5030232;28;20076;-64
2022/09/22 06:47:04;;;;;;;9.38;1.80;;;17.80;91.60;;;;;;5030645;28;20509;-64
2022/09/22 06:49:31;;;;;;;12.77;1.80;;;17.80;91.80;;;;;;5030919;28;20033;-64
2022/09/22 06:51:58;;;;;;;9.40;1.75;;;17.70;92.00;;;;;;5030441;28;20032;-64
2022/09/22 06:54:26;;;;;;;6.70;2.30;;;17.70;91.90;;;;;;5030083;28;20049;-64
2022/09/22 06:56:54;;;;;;;6.70;1.83;;;17.70;92.00;;;;;;5030556;28;20427;-64
2022/09/22 06:59:21;;;;;;;5.03;1.20;;;17.70;92.00;;;;;;5030556;28;20477;-64
2022/09/22 07:01:48;;;;;;;5.15;1.23;;;17.70;92.00;;;;;;5028647;28;20391;-65
2022/09/22 07:04:16;;;;;;;6.80;1.27;;;17.80;92.10;;;;;;5029859;28;20087;-64
2022/09/22 07:06:44;;;;;;;7.68;1.88;;;17.70;91.80;;;;;;5029837;28;20029;-64
2022/09/22 07:09:11;;;;;;;5.38;1.50;;;17.80;92.40;;;;;;5030372;28;20087;-64
2022/09/22 07:11:39;;;;;;;9.73;2.13;;;17.80;92.20;;;;;;5029537;28;20029;-66
2022/09/22 07:14:07;;;;;;;6.63;1.80;;;17.80;92.10;;;;;;5030659;28;20118;-65
2022/09/22 07:16:34;;;;;;;8.10;1.80;;;17.70;92.10;;;;;;5030294;28;20036;-63
2022/09/22 07:19:02;;;;;;;7.97;2.20;;;17.70;92.10;;;;;;5030185;28;20030;-63
2022/09/22 07:21:35;;;;;;;3.97;1.73;;;17.60;92.40;;;;;;5029933;28;20036;-64
2022/09/22 07:24:06;;;;;;;7.35;2.05;;;17.60;92.50;;;;;;5029618;28;20049;-64
2022/09/22 07:26:37;;;;;;;5.75;1.60;;;17.60;92.60;;;;;;5011300;28;20026;-63
2022/09/22 07:29:10;;;;;;;7.47;2.08;;;17.50;92.70;;;;;;5028988;28;20029;-62
2022/09/22 07:31:38;;;;;;;7.32;1.85;;;17.60;92.50;;;;;;5029614;28;20035;-65
2022/09/22 07:34:05;;;;;;;5.38;1.52;;;17.50;92.70;;;;;;5030036;28;20390;-63
2022/09/22 07:36:35;;;;;;;4.85;1.23;;;17.50;93.00;;;;;;5029104;28;20048;-64
2022/09/22 07:39:09;;;;;;;9.38;1.58;;;17.40;92.90;;;;;;5029806;28;20029;-62
2022/09/22 07:41:42;;;;;;;9.45;2.83;;;17.30;93.20;;;;;;5028460;28;20033;-62
2022/09/22 07:46:57;;;;;;;8.88;2.17;;;17.30;93.50;;;;;;5019084;28;20079;-66
2022/09/22 07:49:25;;;;;;;11.93;2.95;;;17.20;93.60;;;;;;5029419;28;20026;-67
2022/09/22 07:51:56;;;;;;;9.10;1.80;;;17.20;93.70;;;;;;5028163;28;20030;-67
2022/09/22 07:54:25;;;;;;;10.77;1.80;;;17.10;94.20;;;;;;5029408;28;20025;-67
2022/09/22 07:56:57;;;;;;;7.68;1.40;;;17.10;94.30;;;;;;5029514;28;20024;-68
2022/09/22 07:59:24;;;;;;;6.95;1.27;;;17.10;94.40;;;;;;5029535;28;20037;-68
2022/09/22 08:01:52;;;;;;;9.15;1.63;;;17.00;94.50;;;;;;5029627;28;20021;-68
2022/09/22 08:04:23;;;;;;;5.38;1.30;;;17.00;94.70;;;;;;5029123;28;20068;-68
2022/09/22 08:06:54;;;;;;;12.75;2.83;;;17.00;94.80;;;;;;5029746;28;20017;-68
2022/09/22 08:09:22;;;;;;;7.43;1.52;;;16.90;94.90;;;;;;5029341;28;20101;-68
2022/09/22 08:11:49;;;;;;;7.43;2.25;;;17.00;95.00;;;;;;5029495;28;20026;-68
2022/09/22 08:14:19;;;;;;;6.93;1.90;;;16.90;95.20;;;;;;5028219;28;20387;-67
2022/09/22 08:16:50;;;;;;;13.15;1.88;;;16.90;95.40;;;;;;5029141;28;20041;-67
2022/09/22 08:19:17;;;;;;;4.38;1.10;;;16.90;95.60;;;;;;5029359;28;20347;-67
2022/09/22 08:21:46;;;;;;;6.75;1.30;;;16.80;96.10;;;;;;5029190;28;20434;-68
2022/09/22 08:24:19;;;;;;;8.25;1.55;;;16.70;96.00;;;;;;5029283;28;20140;-68
2022/09/22 08:26:49;;;;;;;8.52;1.90;;;16.70;96.20;;;;;;5029323;28;20080;-68
2022/09/22 08:29:16;;;;;;;5.90;1.63;;;16.70;96.30;;;;;;5029321;28;20025;-68
2022/09/22 08:31:46;;;;;;;6.95;1.40;;;16.60;96.40;;;;;;5029113;28;20098;-68
2022/09/22 08:34:15;;;;;;;8.20;2.65;;;16.60;96.70;;;;;;5029440;28;20680;-69
2022/09/22 08:36:45;;;;;;;4.72;1.58;;;16.50;96.80;;;;;;5026714;28;20457;-68
2022/09/22 08:39:13;;;;;;;4.93;1.35;;;16.50;97.20;;;;;;5027850;28;20040;-68
2022/09/22 08:41:46;;;;;;;6.20;2.28;;;16.40;97.70;;;;;;5029452;28;20108;-68
2022/09/22 08:44:38;;;;;;;7.15;1.33;;;16.40;98.00;;;;;;5028575;28;20425;-68
2022/09/22 08:47:05;;;;;;;4.15;1.13;;;16.30;98.30;;;;;;5018639;28;20083;-68
2022/09/22 08:52:43;;;;;;;3.95;1.20;;;16.20;98.60;;;;;;5029304;28;20033;-68
2022/09/22 08:55:41;;;;;;;2.28;0.98;;;16.20;98.80;;;;;;5028901;28;20029;-67
2022/09/22 08:58:37;;;;;;;5.22;1.25;;;16.10;99.00;;;;;;5008035;28;20030;-67
2022/09/22 09:01:11;;;;;;;;;;;16.10;99.10;;;;;;5010394;28;20037;-68
2022/09/22 09:03:53;;;;;;;3.88;1.00;;;16.10;99.30;;;;;;5008229;28;20372;-67
2022/09/22 09:06:33;;;;;;;6.47;1.63;;;16.00;99.30;;;;;;5010224;28;20022;-67
2022/09/22 09:09:12;;;;;;;5.13;1.35;;;16.00;99.60;;;;;;5030596;28;20474;-68
2022/09/22 09:11:48;;;;;;;7.32;0.95;;;16.00;99.60;;;;;;5032655;28;20437;-68
2022/09/22 09:14:32;;;;;;;4.75;1.25;;;16.00;99.80;;;;;;5032537;28;20079;-69
2022/09/22 09:17:05;;;;;;;6.55;1.38;;;15.90;99.90;;;;;;5032558;28;20036;-68
2022/09/22 09:19:45;;;;;;;4.37;1.70;;;15.90;99.90;;;;;;5033475;28;20083;-68
2022/09/22 09:22:28;;;;;;;8.77;1.85;;;15.90;99.90;;;;;;5032518;28;20017;-67
2022/09/22 09:25:02;;;;;;;4.40;1.10;;;15.90;99.90;;;;;;5032375;28;20120;-68
2022/09/22 09:27:32;;;;;;;;;;;15.80;99.90;;;;;;5032855;28;20021;-67
2022/09/22 09:30:02;;;;;;;6.38;1.40;;;15.90;99.90;;;;;;5031839;28;19909;-67
2022/09/22 09:32:48;;;;;;;7.13;1.80;;;15.90;99.90;;;;;;5032438;28;20392;-67
2022/09/22 09:35:31;;;;;;;11.02;2.83;;;15.90;99.90;;;;;;5032099;28;20120;-67
2022/09/22 09:38:00;;;;;;;5.88;1.52;;;15.90;99.90;;;;;;5030415;28;20053;-67
2022/09/22 09:40:27;;;;;;;8.63;1.30;;;15.90;99.90;;;;;;5032054;28;20084;-67
2022/09/22 09:43:05;;;;;;;7.63;1.60;;;15.80;99.90;;;;;;5012254;28;20037;-68
2022/09/22 09:45:50;;;;;;;14.15;1.70;;;15.80;99.90;;;;;;5012369;28;20021;-67
2022/09/22 09:48:39;;;;;;;12.18;1.50;;;15.80;99.90;;;;;;5012403;28;20026;-67
2022/09/22 09:51:11;;;;;;;5.13;0.95;;;15.80;99.90;;;;;;5012763;28;20478;-68
2022/09/22 09:53:44;;;;;;;7.80;1.52;;;15.80;99.90;;;;;;5022337;28;20024;-68
2022/09/22 09:56:30;;;;;;;8.23;1.75;;;15.70;99.90;;;;;;5031748;28;20037;-67
2022/09/22 10:01:53;;;;;;;4.97;1.23;;;15.70;99.90;;;;;;5032089;28;20031;-67
2022/09/22 10:04:28;;;;;;;4.35;1.17;;;15.70;99.90;;;;;;5031164;28;20034;-67
2022/09/22 10:07:29;;;;;;;6.45;1.48;;;15.70;99.90;;;;;;5030101;28;20021;-68
2022/09/22 10:10:34;;;;;;;7.05;1.45;;;15.70;99.90;;;;;;5030289;28;20049;-68
2022/09/22 10:13:04;;;;;;;7.13;1.60;;;15.70;99.90;;;;;;5030318;28;20033;-67
2022/09/22 10:15:34;;;;;;;10.27;1.95;;;15.70;99.90;;;;;;5031351;28;20022;-67
2022/09/22 10:18:02;;;;;;;11.27;1.33;;;15.70;99.90;;;;;;5031162;28;20483;-67
2022/09/22 10:20:32;;;;;;;8.88;1.92;;;15.70;99.90;;;;;;5031425;28;20063;-67
2022/09/22 10:23:21;;;;;;;6.85;1.73;;;15.70;99.90;;;;;;5030942;28;20517;-68
2022/09/22 10:25:52;;;;;;;7.70;1.60;;;15.70;99.90;;;;;;5031255;28;20501;-67
2022/09/22 10:28:21;;;;;;;6.97;1.50;;;15.60;99.90;;;;;;5030623;28;20025;-66
2022/09/22 10:30:59;;;;;;;4.65;1.33;;;15.60;99.90;;;;;;5026346;28;20029;-68
2022/09/22 10:33:26;;;;;;;5.97;1.33;;;15.60;99.90;;;;;;5026305;28;20037;-65
2022/09/22 10:36:08;;;;;;;7.20;1.67;;;15.60;99.90;;;;;;5029627;28;20091;-67
2022/09/22 10:38:41;;;;;;;7.25;1.48;;;15.60;99.90;;;;;;5029582;28;20056;-67
2022/09/22 10:41:12;;;;;;;8.77;1.48;;;15.60;99.90;;;;;;5030039;28;20030;-66
2022/09/22 10:44:01;;;;;;;10.05;1.50;;;15.60;99.90;;;;;;5030832;28;20036;-66
2022/09/22 10:46:54;;;;;;;8.73;1.45;;;15.50;99.90;;;;;;5024247;28;20030;-63
2022/09/22 10:49:36;;;;;;;7.18;2.33;;;15.60;99.90;;;;;;5023875;28;20024;-63
2022/09/22 10:52:24;;;;;;;6.53;1.13;;;15.50;99.90;;;;;;5034490;28;20056;-64
2022/09/22 10:55:42;;;;;;;10.48;1.75;;;15.50;99.90;;;;;;5025129;28;20021;-63
2022/09/22 10:58:24;;;;;;;5.65;1.73;;;15.50;99.90;;;;;;4953407;28;20066;-65
2022/09/22 11:01:01;;;;;;;6.30;1.35;;;15.50;99.90;;;;;;4966479;28;20609;-63
2022/09/22 11:04:07;;;;;;;5.88;1.13;;;15.50;99.90;;;;;;5015412;28;20041;-65
2022/09/22 11:13:24;;;;;;;5.22;1.40;;;15.50;99.90;;;;;;4998867;28;20045;-65
2022/09/22 11:16:10;;;;;;;5.28;1.58;;;15.40;99.90;;;;;;5021863;28;20434;-66
2022/09/22 11:19:12;;;;;;;8.50;1.70;;;15.40;99.90;;;;;;5033794;28;20115;-65
2022/09/22 11:22:06;;;;;;;7.03;1.80;;;15.50;99.90;;;;;;5026999;28;20029;-64
2022/09/22 11:25:12;;;;;;;6.63;1.83;;;15.50;99.90;;;;;;5025054;28;20030;-64
2022/09/22 11:27:57;;;;;;;6.30;1.65;;;15.50;99.90;;;;;;5027566;28;20655;-65
2022/09/22 11:30:24;;;;;;;;;;;15.50;99.90;;;;;;5024028;28;20037;-64
2022/09/22 11:33:05;;;;;;;7.93;1.55;;;15.50;99.90;;;;;;5033787;28;19921;-62
2022/09/22 11:36:07;;;;;;;8.15;1.83;;;15.40;99.90;;;;;;5044216;28;20073;-63
2022/09/22 11:39:09;;;;;;;4.93;1.30;;;15.40;99.90;;;;;;5022705;28;20602;-64
2022/09/22 11:41:42;;;;;;;10.10;1.75;;;15.30;99.90;;;;;;5026384;28;20063;-62
2022/09/22 11:44:38;;;;;;;4.95;1.42;;;15.30;99.90;;;;;;5029416;28;20045;-63
2022/09/22 11:47:42;;;;;;;7.28;1.77;;;15.30;99.90;;;;;;5024943;28;20124;-63
2022/09/22 11:50:24;;;;;;;7.03;1.88;;;15.30;99.90;;;;;;5026497;28;20417;-62
2022/09/22 11:53:06;;;;;;;8.68;1.98;;;15.30;99.90;;;;;;5026860;28;20033;-63
2022/09/22 11:55:57;;;;;;;8.27;2.00;;;15.30;99.90;;;;;;5031982;28;20029;-65
2022/09/22 11:58:30;;;;;;;8.68;2.03;;;15.30;99.90;;;;;;5025368;28;20474;-65
2022/09/22 12:01:12;;;;;;;9.82;2.20;;;15.30;99.90;;;;;;5028146;28;20028;-62
2022/09/22 12:03:46;;;;;;;6.88;1.65;;;15.30;99.90;;;;;;5026565;28;20034;-64
2022/09/22 12:06:20;;;;;;;10.88;2.35;;;15.30;99.90;;;;;;5016994;28;20385;-62
2022/09/22 12:09:01;;;;;;;7.50;2.00;;;15.30;99.90;;;;;;5026871;28;20025;-64
2022/09/22 12:11:34;;;;;;;11.98;2.00;;;15.30;99.90;;;;;;5025926;28;20041;-63
2022/09/22 12:14:03;;;;;;;9.25;3.00;;;15.30;99.90;;;;;;5028134;28;20505;-65
2022/09/22 12:16:54;;;;;;;8.27;3.03;;;15.30;99.90;;;;;;5027133;28;20048;-64
2022/09/22 12:19:30;;;;;;;4.40;1.95;;;15.30;99.90;;;;;;5026416;28;20035;-66
2022/09/22 12:22:35;;;;;;;7.60;3.38;;;15.30;99.90;;;;;;5040799;28;20036;-66
2022/09/22 12:25:02;;;;;;;14.00;5.50;;;15.30;99.90;;;;;;4996184;28;20045;-66
2022/09/22 12:27:31;;;;;;;16.25;5.68;;;15.30;99.90;;;;;;5022737;28;20049;-66
2022/09/22 12:30:16;;;;;;;14.40;5.25;;;15.30;99.90;;;;;;5027023;28;20051;-66
2022/09/22 12:32:44;;;;;;;15.38;5.22;;;15.30;99.90;;;;;;5023172;28;20403;-66
2022/09/22 12:35:30;;;;;;;9.52;3.30;;;15.30;99.90;;;;;;5025059;28;20095;-66
2022/09/22 12:38:01;;;;;;;7.75;3.17;;;15.40;99.90;;;;;;5015401;28;20364;-66
2022/09/22 12:40:36;;;;;;;9.05;3.72;;;15.40;99.90;;;;;;5027227;28;20021;-65
2022/09/22 12:43:05;;;;;;;11.70;3.72;;;15.40;99.90;;;;;;5032282;28;20065;-65
2022/09/22 12:45:41;;;;;;;11.10;3.08;;;15.40;99.90;;;;;;5039569;28;20178;-66
2022/09/22 12:48:15;;;;;;;8.18;3.35;;;15.30;99.90;;;;;;5032864;28;20026;-66
2022/09/22 12:50:44;;;;;;;10.43;5.03;;;15.30;99.90;;;;;;5032116;28;20528;-66
2022/09/22 12:53:25;;;;;;;9.23;3.35;;;15.30;99.90;;;;;;5024016;28;20698;-66
2022/09/22 12:55:57;;;;;;;9.90;3.67;;;15.30;99.90;;;;;;5018260;28;20513;-66
2022/09/22 12:58:30;;;;;;;11.88;3.40;;;15.30;99.90;;;;;;5028017;28;20108;-66
2022/09/22 13:01:31;;;;;;;13.27;3.83;;;15.30;99.90;;;;;;5032150;28;20096;-66
2022/09/22 13:04:17;;;;;;;7.18;3.85;;;15.20;99.90;;;;;;5024083;28;20498;-65
2022/09/22 13:06:44;;;;;;;9.07;3.95;;;15.20;99.90;;;;;;5023181;28;20041;-65
2022/09/22 13:09:24;;;;;;;9.95;4.75;;;15.20;99.90;;;;;;5035210;28;20029;-65
2022/09/22 13:12:13;;;;;;;14.95;4.18;;;15.10;99.90;;;;;;5029420;28;20052;-66
2022/09/22 13:15:00;;;;;;;13.85;4.68;;;15.10;99.90;;;;;;5029384;28;20029;-65
2022/09/22 13:17:42;;;;;;;11.95;4.95;;;15.10;99.90;;;;;;5028990;28;20018;-65
2022/09/22 13:20:34;;;;;;;9.70;4.15;;;15.00;99.90;;;;;;5029255;28;20508;-65
2022/09/22 13:23:14;;;;;;;14.25;3.78;;;14.90;99.90;;;;;;5028446;28;20379;-66
2022/09/22 13:25:41;;;;;;;10.30;3.83;;;14.90;99.90;;;;;;5030367;28;20037;-66
2022/09/22 13:28:08;;;;;;;7.30;3.20;;;14.90;99.90;;;;;;5030751;28;20144;-65
2022/09/22 13:30:37;;;;;;;14.20;3.63;;;14.90;99.90;;;;;;5029651;28;20456;-66
2022/09/22 13:33:04;;;;;;;11.52;3.33;;;14.80;99.90;;;;;;5030225;28;20024;-65
2022/09/22 13:35:39;;;;;;;12.68;3.13;;;14.80;99.90;;;;;;5030190;28;20092;-66
2022/09/22 13:38:11;;;;;;;10.35;3.22;;;14.80;99.90;;;;;;5027555;28;20440;-66